sensor_id;sensor_type;location;lat;lon;timestamp;P1;durP1;ratioP1;P2;durP2;ratioP2
27670;SDS011;15077;49.704;9.908;2022-09-13T00:00:55;4.15;;;2.92;;
27670;SDS011;15077;49.704;9.908;2022-09-13T00:03:22;2.80;;;2.50;;
27670;SDS011;15077;49.704;9.908;2022-09-13T00:05:49;3.40;;;2.75;;
27670;SDS011;15077;49.704;9.908;2022-09-13T00:08:15;3.33;;;2.60;;
27670;SDS011;15077;49.704;9.908;2022-09-13T00:10:42;4.32;;;3.10;;
27670;SDS011;15077;49.704;9.908;2022-09-13T00:13:10;3.55;;;2.70;;
27670;SDS011;15077;49.704;9.908;2022-09-13T00:15:41;3.63;;;2.30;;
27670;SDS011;15077;49.704;9.908;2022-09-13T00:18:13;3.42;;;2.78;;
27670;SDS011;15077;49.704;9.908;2022-09-13T00:20:39;3.42;;;2.75;;
27670;SDS011;15077;49.704;9.908;2022-09-13T00:23:05;3.03;;;2.60;;
27670;SDS011;15077;49.704;9.908;2022-09-13T00:25:31;2.80;;;2.40;;
27670;SDS011;15077;49.704;9.908;2022-09-13T00:27:57;3.58;;;2.42;;
27670;SDS011;15077;49.704;9.908;2022-09-13T00:30:23;3.63;;;2.90;;
27670;SDS011;15077;49.704;9.908;2022-09-13T00:32:48;3.25;;;2.55;;
27670;SDS011;15077;49.704;9.908;2022-09-13T00:35:14;3.10;;;2.63;;
27670;SDS011;15077;49.704;9.908;2022-09-13T00:37:40;3.40;;;2.58;;
27670;SDS011;15077;49.704;9.908;2022-09-13T00:40:06;3.35;;;2.58;;
27670;SDS011;15077;49.704;9.908;2022-09-13T00:42:32;4.15;;;2.67;;
27670;SDS011;15077;49.704;9.908;2022-09-13T00:44:59;4.57;;;2.60;;
27670;SDS011;15077;49.704;9.908;2022-09-13T00:47:45;2.85;;;2.47;;
27670;SDS011;15077;49.704;9.908;2022-09-13T00:52:54;3.17;;;2.53;;
27670;SDS011;15077;49.704;9.908;2022-09-13T00:55:29;3.40;;;2.50;;
27670;SDS011;15077;49.704;9.908;2022-09-13T00:58:05;3.45;;;2.70;;
27670;SDS011;15077;49.704;9.908;2022-09-13T01:00:42;2.60;;;2.25;;
27670;SDS011;15077;49.704;9.908;2022-09-13T01:03:09;3.55;;;2.50;;
27670;SDS011;15077;49.704;9.908;2022-09-13T01:05:53;4.40;;;3.28;;
27670;SDS011;15077;49.704;9.908;2022-09-13T01:08:26;2.88;;;2.50;;
27670;SDS011;15077;49.704;9.908;2022-09-13T01:10:55;3.75;;;3.20;;
27670;SDS011;15077;49.704;9.908;2022-09-13T01:13:27;3.75;;;2.80;;
27670;SDS011;15077;49.704;9.908;2022-09-13T01:15:57;2.75;;;2.28;;
27670;SDS011;15077;49.704;9.908;2022-09-13T01:18:24;3.88;;;2.75;;
27670;SDS011;15077;49.704;9.908;2022-09-13T01:23:58;2.67;;;2.38;;
27670;SDS011;15077;49.704;9.908;2022-09-13T01:32:20;3.40;;;2.38;;
27670;SDS011;15077;49.704;9.908;2022-09-13T01:55:30;3.08;;;2.33;;
27670;SDS011;15077;49.704;9.908;2022-09-13T02:01:29;3.03;;;2.33;;
27670;SDS011;15077;49.704;9.908;2022-09-13T02:04:10;3.42;;;2.63;;
27670;SDS011;15077;49.704;9.908;2022-09-13T02:07:04;3.53;;;2.60;;
27670;SDS011;15077;49.704;9.908;2022-09-13T02:09:43;3.28;;;2.50;;
27670;SDS011;15077;49.704;9.908;2022-09-13T02:12:22;3.70;;;2.63;;
27670;SDS011;15077;49.704;9.908;2022-09-13T02:14:59;3.53;;;2.72;;
27670;SDS011;15077;49.704;9.908;2022-09-13T02:17:53;2.83;;;2.05;;
27670;SDS011;15077;49.704;9.908;2022-09-13T02:20:46;3.45;;;2.55;;
27670;SDS011;15077;49.704;9.908;2022-09-13T02:23:17;4.80;;;3.10;;
27670;SDS011;15077;49.704;9.908;2022-09-13T02:26:05;5.00;;;2.85;;
27670;SDS011;15077;49.704;9.908;2022-09-13T02:28:37;2.90;;;2.33;;
27670;SDS011;15077;49.704;9.908;2022-09-13T02:31:12;2.72;;;2.13;;
27670;SDS011;15077;49.704;9.908;2022-09-13T02:36:25;5.30;;;2.95;;
27670;SDS011;15077;49.704;9.908;2022-09-13T02:39:02;5.60;;;2.92;;
27670;SDS011;15077;49.704;9.908;2022-09-13T02:41:45;3.53;;;2.92;;
27670;SDS011;15077;49.704;9.908;2022-09-13T02:53:13;3.63;;;2.63;;
27670;SDS011;15077;49.704;9.908;2022-09-13T02:58:56;4.13;;;2.90;;
27670;SDS011;15077;49.704;9.908;2022-09-13T03:01:24;5.30;;;3.85;;
27670;SDS011;15077;49.704;9.908;2022-09-13T03:03:51;4.00;;;3.38;;
27670;SDS011;15077;49.704;9.908;2022-09-13T03:06:24;5.32;;;3.45;;
27670;SDS011;15077;49.704;9.908;2022-09-13T03:08:53;5.00;;;3.97;;
27670;SDS011;15077;49.704;9.908;2022-09-13T03:23:54;4.68;;;3.22;;
27670;SDS011;15077;49.704;9.908;2022-09-13T03:29:24;4.97;;;3.25;;
27670;SDS011;15077;49.704;9.908;2022-09-13T03:37:41;4.53;;;3.13;;
27670;SDS011;15077;49.704;9.908;2022-09-13T03:45:36;4.03;;;2.88;;
27670;SDS011;15077;49.704;9.908;2022-09-13T03:48:09;5.30;;;3.53;;
27670;SDS011;15077;49.704;9.908;2022-09-13T03:50:36;5.72;;;3.95;;
27670;SDS011;15077;49.704;9.908;2022-09-13T03:53:14;5.20;;;4.32;;
27670;SDS011;15077;49.704;9.908;2022-09-13T03:55:51;4.65;;;3.35;;
27670;SDS011;15077;49.704;9.908;2022-09-13T03:58:18;5.30;;;3.75;;
27670;SDS011;15077;49.704;9.908;2022-09-13T04:00:45;5.47;;;3.80;;
27670;SDS011;15077;49.704;9.908;2022-09-13T04:03:11;8.27;;;6.00;;
27670;SDS011;15077;49.704;9.908;2022-09-13T04:05:38;8.55;;;5.78;;
27670;SDS011;15077;49.704;9.908;2022-09-13T04:08:04;7.43;;;5.15;;
27670;SDS011;15077;49.704;9.908;2022-09-13T04:10:32;8.60;;;4.85;;
27670;SDS011;15077;49.704;9.908;2022-09-13T04:12:59;7.05;;;4.75;;
27670;SDS011;15077;49.704;9.908;2022-09-13T04:15:28;5.15;;;3.88;;
27670;SDS011;15077;49.704;9.908;2022-09-13T04:17:55;5.22;;;3.42;;
27670;SDS011;15077;49.704;9.908;2022-09-13T04:20:22;5.20;;;4.03;;
27670;SDS011;15077;49.704;9.908;2022-09-13T04:22:52;5.75;;;4.55;;
27670;SDS011;15077;49.704;9.908;2022-09-13T04:25:20;9.23;;;5.38;;
27670;SDS011;15077;49.704;9.908;2022-09-13T04:27:47;8.07;;;5.25;;
27670;SDS011;15077;49.704;9.908;2022-09-13T04:30:18;5.50;;;4.32;;
27670;SDS011;15077;49.704;9.908;2022-09-13T04:32:43;6.45;;;5.00;;
27670;SDS011;15077;49.704;9.908;2022-09-13T04:35:09;8.05;;;5.53;;
27670;SDS011;15077;49.704;9.908;2022-09-13T04:37:36;5.93;;;4.45;;
27670;SDS011;15077;49.704;9.908;2022-09-13T04:40:03;6.95;;;4.10;;
27670;SDS011;15077;49.704;9.908;2022-09-13T04:42:32;5.43;;;3.67;;
27670;SDS011;15077;49.704;9.908;2022-09-13T04:44:58;5.47;;;4.47;;
27670;SDS011;15077;49.704;9.908;2022-09-13T04:47:24;5.82;;;3.75;;
27670;SDS011;15077;49.704;9.908;2022-09-13T04:49:49;5.93;;;4.40;;
27670;SDS011;15077;49.704;9.908;2022-09-13T04:52:15;5.32;;;3.83;;
27670;SDS011;15077;49.704;9.908;2022-09-13T04:54:41;5.50;;;3.78;;
27670;SDS011;15077;49.704;9.908;2022-09-13T04:57:07;4.57;;;3.30;;
27670;SDS011;15077;49.704;9.908;2022-09-13T04:59:33;5.38;;;3.58;;
27670;SDS011;15077;49.704;9.908;2022-09-13T05:01:59;4.13;;;3.13;;
27670;SDS011;15077;49.704;9.908;2022-09-13T05:04:24;3.90;;;3.03;;
27670;SDS011;15077;49.704;9.908;2022-09-13T05:06:50;4.65;;;3.35;;
27670;SDS011;15077;49.704;9.908;2022-09-13T05:09:16;3.38;;;2.58;;
27670;SDS011;15077;49.704;9.908;2022-09-13T05:11:42;4.43;;;3.28;;
27670;SDS011;15077;49.704;9.908;2022-09-13T05:14:09;3.45;;;2.80;;
27670;SDS011;15077;49.704;9.908;2022-09-13T05:16:36;4.47;;;2.85;;
27670;SDS011;15077;49.704;9.908;2022-09-13T05:19:02;3.45;;;2.58;;
27670;SDS011;15077;49.704;9.908;2022-09-13T05:21:29;4.47;;;3.13;;
27670;SDS011;15077;49.704;9.908;2022-09-13T05:23:55;4.32;;;2.97;;
27670;SDS011;15077;49.704;9.908;2022-09-13T05:26:23;3.38;;;2.67;;
27670;SDS011;15077;49.704;9.908;2022-09-13T05:28:51;3.45;;;2.65;;
27670;SDS011;15077;49.704;9.908;2022-09-13T05:31:19;4.22;;;3.13;;
27670;SDS011;15077;49.704;9.908;2022-09-13T05:34:07;3.53;;;2.60;;
27670;SDS011;15077;49.704;9.908;2022-09-13T05:36:36;3.90;;;2.65;;
27670;SDS011;15077;49.704;9.908;2022-09-13T05:39:02;3.08;;;2.42;;
27670;SDS011;15077;49.704;9.908;2022-09-13T05:41:29;4.95;;;2.95;;
27670;SDS011;15077;49.704;9.908;2022-09-13T05:43:56;5.88;;;2.92;;
27670;SDS011;15077;49.704;9.908;2022-09-13T05:46:22;4.75;;;3.05;;
27670;SDS011;15077;49.704;9.908;2022-09-13T05:48:48;4.43;;;3.15;;
27670;SDS011;15077;49.704;9.908;2022-09-13T05:53:43;3.95;;;2.90;;
27670;SDS011;15077;49.704;9.908;2022-09-13T05:56:15;4.05;;;2.67;;
27670;SDS011;15077;49.704;9.908;2022-09-13T05:58:45;5.30;;;3.00;;
27670;SDS011;15077;49.704;9.908;2022-09-13T06:01:14;3.80;;;2.85;;
27670;SDS011;15077;49.704;9.908;2022-09-13T06:03:42;3.58;;;2.40;;
27670;SDS011;15077;49.704;9.908;2022-09-13T06:08:41;2.63;;;2.03;;
27670;SDS011;15077;49.704;9.908;2022-09-13T06:11:08;4.43;;;3.45;;
27670;SDS011;15077;49.704;9.908;2022-09-13T06:13:36;3.40;;;2.63;;
27670;SDS011;15077;49.704;9.908;2022-09-13T06:16:04;4.30;;;2.95;;
27670;SDS011;15077;49.704;9.908;2022-09-13T06:18:33;4.35;;;3.38;;
27670;SDS011;15077;49.704;9.908;2022-09-13T06:21:21;5.55;;;4.05;;
27670;SDS011;15077;49.704;9.908;2022-09-13T06:23:48;4.65;;;3.90;;
27670;SDS011;15077;49.704;9.908;2022-09-13T06:26:17;4.82;;;3.78;;
27670;SDS011;15077;49.704;9.908;2022-09-13T06:28:46;4.57;;;3.53;;
27670;SDS011;15077;49.704;9.908;2022-09-13T06:31:15;6.78;;;4.03;;
27670;SDS011;15077;49.704;9.908;2022-09-13T06:33:43;5.43;;;3.65;;
27670;SDS011;15077;49.704;9.908;2022-09-13T06:36:14;5.00;;;3.63;;
27670;SDS011;15077;49.704;9.908;2022-09-13T06:38:43;4.25;;;3.22;;
27670;SDS011;15077;49.704;9.908;2022-09-13T06:41:17;4.10;;;3.03;;
27670;SDS011;15077;49.704;9.908;2022-09-13T06:43:51;4.70;;;3.50;;
27670;SDS011;15077;49.704;9.908;2022-09-13T06:46:19;3.35;;;2.90;;
27670;SDS011;15077;49.704;9.908;2022-09-13T06:48:45;4.10;;;3.05;;
27670;SDS011;15077;49.704;9.908;2022-09-13T06:51:13;4.68;;;3.08;;
27670;SDS011;15077;49.704;9.908;2022-09-13T06:53:42;4.63;;;2.95;;
27670;SDS011;15077;49.704;9.908;2022-09-13T06:58:48;7.80;;;5.57;;
27670;SDS011;15077;49.704;9.908;2022-09-13T07:01:20;5.45;;;3.83;;
27670;SDS011;15077;49.704;9.908;2022-09-13T07:03:56;6.38;;;5.45;;
27670;SDS011;15077;49.704;9.908;2022-09-13T07:06:35;5.25;;;4.32;;
27670;SDS011;15077;49.704;9.908;2022-09-13T07:09:04;5.30;;;3.60;;
27670;SDS011;15077;49.704;9.908;2022-09-13T07:11:35;4.85;;;3.80;;
27670;SDS011;15077;49.704;9.908;2022-09-13T07:14:03;4.63;;;4.00;;
27670;SDS011;15077;49.704;9.908;2022-09-13T07:16:31;4.45;;;3.60;;
27670;SDS011;15077;49.704;9.908;2022-09-13T07:19:22;6.40;;;3.85;;
27670;SDS011;15077;49.704;9.908;2022-09-13T07:21:53;6.70;;;4.95;;
27670;SDS011;15077;49.704;9.908;2022-09-13T07:24:21;6.60;;;5.72;;
27670;SDS011;15077;49.704;9.908;2022-09-13T07:26:47;8.48;;;5.50;;
27670;SDS011;15077;49.704;9.908;2022-09-13T07:29:15;7.00;;;4.53;;
27670;SDS011;15077;49.704;9.908;2022-09-13T07:31:48;4.93;;;4.25;;
27670;SDS011;15077;49.704;9.908;2022-09-13T07:34:21;4.15;;;3.38;;
27670;SDS011;15077;49.704;9.908;2022-09-13T07:39:16;5.40;;;2.72;;
27670;SDS011;15077;49.704;9.908;2022-09-13T07:41:43;3.85;;;3.00;;
27670;SDS011;15077;49.704;9.908;2022-09-13T07:44:10;4.03;;;2.88;;
27670;SDS011;15077;49.704;9.908;2022-09-13T07:46:40;3.53;;;2.85;;
27670;SDS011;15077;49.704;9.908;2022-09-13T07:49:08;2.85;;;2.47;;
27670;SDS011;15077;49.704;9.908;2022-09-13T07:51:42;6.85;;;4.05;;
27670;SDS011;15077;49.704;9.908;2022-09-13T07:54:09;4.80;;;3.53;;
27670;SDS011;15077;49.704;9.908;2022-09-13T07:56:41;8.25;;;2.75;;
27670;SDS011;15077;49.704;9.908;2022-09-13T07:59:11;4.65;;;3.17;;
27670;SDS011;15077;49.704;9.908;2022-09-13T08:01:49;4.78;;;3.45;;
27670;SDS011;15077;49.704;9.908;2022-09-13T08:04:16;4.20;;;3.13;;
27670;SDS011;15077;49.704;9.908;2022-09-13T08:06:47;5.10;;;3.47;;
27670;SDS011;15077;49.704;9.908;2022-09-13T08:09:14;4.30;;;3.58;;
27670;SDS011;15077;49.704;9.908;2022-09-13T08:11:45;5.07;;;3.40;;
27670;SDS011;15077;49.704;9.908;2022-09-13T08:14:16;4.80;;;3.60;;
27670;SDS011;15077;49.704;9.908;2022-09-13T08:16:44;5.88;;;4.07;;
27670;SDS011;15077;49.704;9.908;2022-09-13T08:19:14;3.92;;;3.13;;
27670;SDS011;15077;49.704;9.908;2022-09-13T08:21:42;4.20;;;3.70;;
27670;SDS011;15077;49.704;9.908;2022-09-13T08:24:13;4.35;;;3.22;;
27670;SDS011;15077;49.704;9.908;2022-09-13T08:26:42;3.60;;;2.72;;
27670;SDS011;15077;49.704;9.908;2022-09-13T08:29:09;2.65;;;2.20;;
27670;SDS011;15077;49.704;9.908;2022-09-13T08:31:36;3.08;;;2.63;;
27670;SDS011;15077;49.704;9.908;2022-09-13T08:34:02;2.97;;;2.38;;
27670;SDS011;15077;49.704;9.908;2022-09-13T08:36:28;3.17;;;1.98;;
27670;SDS011;15077;49.704;9.908;2022-09-13T08:38:57;2.30;;;1.77;;
27670;SDS011;15077;49.704;9.908;2022-09-13T08:46:47;2.55;;;1.73;;
27670;SDS011;15077;49.704;9.908;2022-09-13T08:51:47;2.80;;;1.95;;
27670;SDS011;15077;49.704;9.908;2022-09-13T08:54:23;3.17;;;2.38;;
27670;SDS011;15077;49.704;9.908;2022-09-13T08:57:33;2.22;;;1.80;;
27670;SDS011;15077;49.704;9.908;2022-09-13T09:05:48;3.35;;;2.42;;
27670;SDS011;15077;49.704;9.908;2022-09-13T09:11:39;2.97;;;2.38;;
27670;SDS011;15077;49.704;9.908;2022-09-13T09:17:04;3.85;;;3.22;;
27670;SDS011;15077;49.704;9.908;2022-09-13T09:19:41;4.30;;;2.75;;
27670;SDS011;15077;49.704;9.908;2022-09-13T09:22:16;2.88;;;2.47;;
27670;SDS011;15077;49.704;9.908;2022-09-13T09:24:52;8.90;;;3.35;;
27670;SDS011;15077;49.704;9.908;2022-09-13T09:27:21;4.03;;;2.70;;
27670;SDS011;15077;49.704;9.908;2022-09-13T09:29:48;8.95;;;3.13;;
27670;SDS011;15077;49.704;9.908;2022-09-13T09:40:46;3.08;;;2.60;;
27670;SDS011;15077;49.704;9.908;2022-09-13T09:46:31;2.72;;;2.38;;
27670;SDS011;15077;49.704;9.908;2022-09-13T09:52:16;3.65;;;2.17;;
27670;SDS011;15077;49.704;9.908;2022-09-13T09:54:48;2.55;;;1.88;;
27670;SDS011;15077;49.704;9.908;2022-09-13T09:57:14;5.28;;;2.63;;
27670;SDS011;15077;49.704;9.908;2022-09-13T09:59:44;3.22;;;2.40;;
27670;SDS011;15077;49.704;9.908;2022-09-13T10:02:16;3.78;;;2.17;;
27670;SDS011;15077;49.704;9.908;2022-09-13T10:04:55;2.80;;;2.45;;
27670;SDS011;15077;49.704;9.908;2022-09-13T10:07:30;2.92;;;2.30;;
27670;SDS011;15077;49.704;9.908;2022-09-13T10:10:05;2.25;;;1.80;;
27670;SDS011;15077;49.704;9.908;2022-09-13T10:12:44;2.70;;;2.00;;
27670;SDS011;15077;49.704;9.908;2022-09-13T10:15:17;2.38;;;1.85;;
27670;SDS011;15077;49.704;9.908;2022-09-13T10:20:34;2.45;;;2.00;;
27670;SDS011;15077;49.704;9.908;2022-09-13T10:23:10;2.50;;;1.98;;
27670;SDS011;15077;49.704;9.908;2022-09-13T10:25:38;3.30;;;2.70;;
27670;SDS011;15077;49.704;9.908;2022-09-13T10:28:11;4.30;;;2.72;;
27670;SDS011;15077;49.704;9.908;2022-09-13T10:33:35;4.97;;;2.40;;
27670;SDS011;15077;49.704;9.908;2022-09-13T10:36:28;3.13;;;2.45;;
27670;SDS011;15077;49.704;9.908;2022-09-13T10:38:59;2.65;;;2.38;;
27670;SDS011;15077;49.704;9.908;2022-09-13T10:41:48;5.32;;;2.47;;
27670;SDS011;15077;49.704;9.908;2022-09-13T10:44:38;2.10;;;1.52;;
27670;SDS011;15077;49.704;9.908;2022-09-13T10:47:17;3.20;;;1.50;;
27670;SDS011;15077;49.704;9.908;2022-09-13T10:49:50;2.92;;;2.08;;
27670;SDS011;15077;49.704;9.908;2022-09-13T10:54:52;2.70;;;1.83;;
27670;SDS011;15077;49.704;9.908;2022-09-13T10:57:33;2.53;;;2.30;;
27670;SDS011;15077;49.704;9.908;2022-09-13T11:00:03;3.20;;;2.67;;
27670;SDS011;15077;49.704;9.908;2022-09-13T11:27:28;3.57;;;2.67;;
27670;SDS011;15077;49.704;9.908;2022-09-13T11:30:11;2.90;;;2.58;;
27670;SDS011;15077;49.704;9.908;2022-09-13T11:38:35;2.10;;;1.85;;
27670;SDS011;15077;49.704;9.908;2022-09-13T11:41:30;2.90;;;2.15;;
27670;SDS011;15077;49.704;9.908;2022-09-13T11:47:18;3.08;;;2.22;;
27670;SDS011;15077;49.704;9.908;2022-09-13T11:58:02;2.13;;;1.67;;
27670;SDS011;15077;49.704;9.908;2022-09-13T12:00:40;2.08;;;1.85;;
27670;SDS011;15077;49.704;9.908;2022-09-13T12:06:04;2.35;;;1.77;;
27670;SDS011;15077;49.704;9.908;2022-09-13T12:08:48;2.97;;;1.83;;
27670;SDS011;15077;49.704;9.908;2022-09-13T12:11:21;3.35;;;2.53;;
27670;SDS011;15077;49.704;9.908;2022-09-13T12:13:58;2.08;;;1.88;;
27670;SDS011;15077;49.704;9.908;2022-09-13T12:16:39;1.73;;;1.40;;
27670;SDS011;15077;49.704;9.908;2022-09-13T12:19:15;1.98;;;1.58;;
27670;SDS011;15077;49.704;9.908;2022-09-13T12:21:42;2.45;;;1.63;;
27670;SDS011;15077;49.704;9.908;2022-09-13T12:27:10;1.95;;;1.27;;
27670;SDS011;15077;49.704;9.908;2022-09-13T12:35:21;4.70;;;2.22;;
27670;SDS011;15077;49.704;9.908;2022-09-13T12:38:04;2.00;;;1.60;;
27670;SDS011;15077;49.704;9.908;2022-09-13T12:49:43;2.00;;;1.50;;
27670;SDS011;15077;49.704;9.908;2022-09-13T13:01:23;1.70;;;1.50;;
27670;SDS011;15077;49.704;9.908;2022-09-13T13:06:54;2.08;;;1.60;;
27670;SDS011;15077;49.704;9.908;2022-09-13T13:12:32;2.67;;;1.65;;
27670;SDS011;15077;49.704;9.908;2022-09-13T13:15:03;1.80;;;1.23;;
27670;SDS011;15077;49.704;9.908;2022-09-13T13:17:51;2.33;;;1.98;;
27670;SDS011;15077;49.704;9.908;2022-09-13T13:32:22;3.25;;;1.95;;
27670;SDS011;15077;49.704;9.908;2022-09-13T13:37:22;1.98;;;1.65;;
27670;SDS011;15077;49.704;9.908;2022-09-13T13:42:49;2.33;;;1.50;;
27670;SDS011;15077;49.704;9.908;2022-09-13T13:48:37;1.80;;;1.30;;
27670;SDS011;15077;49.704;9.908;2022-09-13T13:53:38;1.50;;;1.30;;
27670;SDS011;15077;49.704;9.908;2022-09-13T14:01:47;2.05;;;1.48;;
27670;SDS011;15077;49.704;9.908;2022-09-13T14:07:18;2.25;;;1.50;;
27670;SDS011;15077;49.704;9.908;2022-09-13T14:16:32;3.70;;;2.95;;
27670;SDS011;15077;49.704;9.908;2022-09-13T14:22:17;2.42;;;1.70;;
27670;SDS011;15077;49.704;9.908;2022-09-13T14:24:51;2.58;;;2.35;;
27670;SDS011;15077;49.704;9.908;2022-09-13T14:27:26;1.98;;;1.50;;
27670;SDS011;15077;49.704;9.908;2022-09-13T14:30:16;2.05;;;1.40;;
27670;SDS011;15077;49.704;9.908;2022-09-13T14:32:48;2.38;;;1.60;;
27670;SDS011;15077;49.704;9.908;2022-09-13T14:37:56;2.00;;;1.80;;
27670;SDS011;15077;49.704;9.908;2022-09-13T14:40:47;2.58;;;1.65;;
27670;SDS011;15077;49.704;9.908;2022-09-13T14:43:18;1.58;;;1.38;;
27670;SDS011;15077;49.704;9.908;2022-09-13T14:45:47;1.52;;;1.23;;
27670;SDS011;15077;49.704;9.908;2022-09-13T14:48:23;4.07;;;1.98;;
27670;SDS011;15077;49.704;9.908;2022-09-13T14:51:01;1.67;;;1.20;;
27670;SDS011;15077;49.704;9.908;2022-09-13T14:53:37;1.67;;;1.10;;
27670;SDS011;15077;49.704;9.908;2022-09-13T14:56:11;1.45;;;1.15;;
27670;SDS011;15077;49.704;9.908;2022-09-13T14:58:47;2.38;;;1.20;;
27670;SDS011;15077;49.704;9.908;2022-09-13T15:01:19;1.08;;;0.90;;
27670;SDS011;15077;49.704;9.908;2022-09-13T15:03:54;1.42;;;0.73;;
27670;SDS011;15077;49.704;9.908;2022-09-13T15:06:25;1.83;;;1.35;;
27670;SDS011;15077;49.704;9.908;2022-09-13T15:08:56;1.20;;;0.90;;
27670;SDS011;15077;49.704;9.908;2022-09-13T15:11:36;1.40;;;0.95;;
27670;SDS011;15077;49.704;9.908;2022-09-13T15:14:32;2.15;;;1.02;;
27670;SDS011;15077;49.704;9.908;2022-09-13T15:19:39;1.77;;;1.23;;
27670;SDS011;15077;49.704;9.908;2022-09-13T15:22:18;1.30;;;1.15;;
27670;SDS011;15077;49.704;9.908;2022-09-13T15:25:00;3.47;;;1.30;;
27670;SDS011;15077;49.704;9.908;2022-09-13T15:27:28;1.60;;;1.10;;
27670;SDS011;15077;49.704;9.908;2022-09-13T15:30:29;1.88;;;1.17;;
27670;SDS011;15077;49.704;9.908;2022-09-13T15:35:36;4.00;;;1.40;;
27670;SDS011;15077;49.704;9.908;2022-09-13T15:38:25;1.48;;;1.00;;
27670;SDS011;15077;49.704;9.908;2022-09-13T15:41:02;1.63;;;0.90;;
27670;SDS011;15077;49.704;9.908;2022-09-13T15:43:43;1.17;;;1.05;;
27670;SDS011;15077;49.704;9.908;2022-09-13T15:46:13;2.47;;;1.02;;
27670;SDS011;15077;49.704;9.908;2022-09-13T15:48:42;0.98;;;0.77;;
27670;SDS011;15077;49.704;9.908;2022-09-13T15:51:16;2.42;;;1.10;;
27670;SDS011;15077;49.704;9.908;2022-09-13T15:53:43;1.58;;;0.93;;
27670;SDS011;15077;49.704;9.908;2022-09-13T15:56:15;0.98;;;0.85;;
27670;SDS011;15077;49.704;9.908;2022-09-13T15:58:46;1.42;;;0.93;;
27670;SDS011;15077;49.704;9.908;2022-09-13T16:01:13;1.17;;;0.90;;
27670;SDS011;15077;49.704;9.908;2022-09-13T16:03:40;1.50;;;0.90;;
27670;SDS011;15077;49.704;9.908;2022-09-13T16:06:07;1.00;;;0.80;;
27670;SDS011;15077;49.704;9.908;2022-09-13T16:08:34;1.23;;;0.70;;
27670;SDS011;15077;49.704;9.908;2022-09-13T16:11:01;1.92;;;0.77;;
27670;SDS011;15077;49.704;9.908;2022-09-13T16:13:28;0.98;;;0.77;;
27670;SDS011;15077;49.704;9.908;2022-09-13T16:15:53;1.08;;;0.70;;
27670;SDS011;15077;49.704;9.908;2022-09-13T16:18:21;1.55;;;1.08;;
27670;SDS011;15077;49.704;9.908;2022-09-13T16:20:48;1.08;;;0.93;;
27670;SDS011;15077;49.704;9.908;2022-09-13T16:23:15;1.42;;;0.80;;
27670;SDS011;15077;49.704;9.908;2022-09-13T16:25:41;1.10;;;0.90;;
27670;SDS011;15077;49.704;9.908;2022-09-13T16:28:09;0.98;;;0.60;;
27670;SDS011;15077;49.704;9.908;2022-09-13T16:30:43;1.45;;;0.85;;
27670;SDS011;15077;49.704;9.908;2022-09-13T16:33:11;0.82;;;0.60;;
27670;SDS011;15077;49.704;9.908;2022-09-13T16:35:36;1.65;;;0.70;;
27670;SDS011;15077;49.704;9.908;2022-09-13T16:38:02;0.88;;;0.70;;
27670;SDS011;15077;49.704;9.908;2022-09-13T16:40:28;1.00;;;0.80;;
27670;SDS011;15077;49.704;9.908;2022-09-13T16:42:54;1.10;;;0.88;;
27670;SDS011;15077;49.704;9.908;2022-09-13T16:45:19;1.00;;;0.80;;
27670;SDS011;15077;49.704;9.908;2022-09-13T16:47:45;1.35;;;0.73;;
27670;SDS011;15077;49.704;9.908;2022-09-13T16:50:11;1.13;;;0.95;;
27670;SDS011;15077;49.704;9.908;2022-09-13T16:52:37;2.17;;;1.08;;
27670;SDS011;15077;49.704;9.908;2022-09-13T16:55:04;1.02;;;0.85;;
27670;SDS011;15077;49.704;9.908;2022-09-13T16:57:31;1.40;;;0.80;;
27670;SDS011;15077;49.704;9.908;2022-09-13T16:59:57;1.13;;;0.57;;
27670;SDS011;15077;49.704;9.908;2022-09-13T17:02:23;1.50;;;0.88;;
27670;SDS011;15077;49.704;9.908;2022-09-13T17:04:50;1.00;;;0.70;;
27670;SDS011;15077;49.704;9.908;2022-09-13T17:07:16;1.42;;;0.63;;
27670;SDS011;15077;49.704;9.908;2022-09-13T17:09:42;1.73;;;0.57;;
27670;SDS011;15077;49.704;9.908;2022-09-13T17:12:09;0.90;;;0.60;;
27670;SDS011;15077;49.704;9.908;2022-09-13T17:14:39;1.20;;;0.88;;
27670;SDS011;15077;49.704;9.908;2022-09-13T17:17:11;1.98;;;1.25;;
27670;SDS011;15077;49.704;9.908;2022-09-13T17:19:40;2.80;;;1.80;;
27670;SDS011;15077;49.704;9.908;2022-09-13T17:22:06;6.28;;;2.90;;
27670;SDS011;15077;49.704;9.908;2022-09-13T17:24:34;5.78;;;3.00;;
27670;SDS011;15077;49.704;9.908;2022-09-13T17:27:02;3.83;;;2.33;;
27670;SDS011;15077;49.704;9.908;2022-09-13T17:29:30;4.43;;;2.20;;
27670;SDS011;15077;49.704;9.908;2022-09-13T17:31:59;2.17;;;1.40;;
27670;SDS011;15077;49.704;9.908;2022-09-13T17:34:27;1.85;;;1.27;;
27670;SDS011;15077;49.704;9.908;2022-09-13T17:36:54;2.58;;;1.40;;
27670;SDS011;15077;49.704;9.908;2022-09-13T17:39:21;1.90;;;1.20;;
27670;SDS011;15077;49.704;9.908;2022-09-13T17:41:47;1.42;;;1.08;;
27670;SDS011;15077;49.704;9.908;2022-09-13T17:44:13;1.50;;;1.00;;
27670;SDS011;15077;49.704;9.908;2022-09-13T17:46:40;1.35;;;0.95;;
27670;SDS011;15077;49.704;9.908;2022-09-13T17:49:06;1.45;;;1.00;;
27670;SDS011;15077;49.704;9.908;2022-09-13T17:51:32;0.90;;;0.80;;
27670;SDS011;15077;49.704;9.908;2022-09-13T17:54:03;0.90;;;0.73;;
27670;SDS011;15077;49.704;9.908;2022-09-13T17:56:34;1.90;;;1.00;;
27670;SDS011;15077;49.704;9.908;2022-09-13T17:59:04;0.85;;;0.82;;
27670;SDS011;15077;49.704;9.908;2022-09-13T18:01:41;1.33;;;0.95;;
27670;SDS011;15077;49.704;9.908;2022-09-13T18:04:09;1.65;;;1.33;;
27670;SDS011;15077;49.704;9.908;2022-09-13T18:06:38;1.05;;;0.88;;
27670;SDS011;15077;49.704;9.908;2022-09-13T18:09:06;1.40;;;0.98;;
27670;SDS011;15077;49.704;9.908;2022-09-13T18:11:38;1.93;;;1.27;;
27670;SDS011;15077;49.704;9.908;2022-09-13T18:14:04;2.72;;;1.50;;
27670;SDS011;15077;49.704;9.908;2022-09-13T18:16:31;3.05;;;2.20;;
27670;SDS011;15077;49.704;9.908;2022-09-13T18:18:58;3.30;;;3.00;;
27670;SDS011;15077;49.704;9.908;2022-09-13T18:21:25;3.10;;;2.80;;
27670;SDS011;15077;49.704;9.908;2022-09-13T18:23:53;2.38;;;2.17;;
27670;SDS011;15077;49.704;9.908;2022-09-13T18:26:22;2.00;;;1.30;;
27670;SDS011;15077;49.704;9.908;2022-09-13T18:28:53;1.40;;;1.17;;
27670;SDS011;15077;49.704;9.908;2022-09-13T18:31:29;1.33;;;0.82;;
27670;SDS011;15077;49.704;9.908;2022-09-13T18:33:57;2.85;;;1.13;;
27670;SDS011;15077;49.704;9.908;2022-09-13T18:36:27;1.90;;;1.05;;
27670;SDS011;15077;49.704;9.908;2022-09-13T18:38:54;1.40;;;0.90;;
27670;SDS011;15077;49.704;9.908;2022-09-13T18:41:22;1.63;;;1.30;;
27670;SDS011;15077;49.704;9.908;2022-09-13T18:43:55;1.60;;;1.30;;
27670;SDS011;15077;49.704;9.908;2022-09-13T18:46:23;1.60;;;1.17;;
27670;SDS011;15077;49.704;9.908;2022-09-13T18:48:56;1.52;;;1.15;;
27670;SDS011;15077;49.704;9.908;2022-09-13T18:51:33;1.00;;;0.88;;
27670;SDS011;15077;49.704;9.908;2022-09-13T18:54:01;1.00;;;0.80;;
27670;SDS011;15077;49.704;9.908;2022-09-13T18:56:29;0.95;;;0.90;;
27670;SDS011;15077;49.704;9.908;2022-09-13T18:59:00;1.05;;;0.77;;
27670;SDS011;15077;49.704;9.908;2022-09-13T19:01:29;1.60;;;0.90;;
27670;SDS011;15077;49.704;9.908;2022-09-13T19:04:03;1.55;;;1.10;;
27670;SDS011;15077;49.704;9.908;2022-09-13T19:06:35;1.13;;;0.90;;
27670;SDS011;15077;49.704;9.908;2022-09-13T19:09:05;0.90;;;0.70;;
27670;SDS011;15077;49.704;9.908;2022-09-13T19:11:33;1.60;;;1.30;;
27670;SDS011;15077;49.704;9.908;2022-09-13T19:16:31;1.08;;;0.80;;
27670;SDS011;15077;49.704;9.908;2022-09-13T19:18:58;1.23;;;0.95;;
27670;SDS011;15077;49.704;9.908;2022-09-13T19:21:28;1.38;;;0.68;;
27670;SDS011;15077;49.704;9.908;2022-09-13T19:23:56;1.38;;;1.10;;
27670;SDS011;15077;49.704;9.908;2022-09-13T19:28:59;1.17;;;1.00;;
27670;SDS011;15077;49.704;9.908;2022-09-13T19:31:30;1.50;;;0.80;;
27670;SDS011;15077;49.704;9.908;2022-09-13T19:33:59;1.00;;;0.85;;